Terminal Aerodrome Forecast
Issued by NWS Cleveland, OH

Home | Current Version | Previous Version | Text Only | Print | Product List | Glossary On
Versions: 1 2 3 4 5 6 7 8 9 10 11 12 13 14 15 16
000
FTUS41 KCLE 032300
TAFCAK
TAF
KCAK 032320Z 0400/0424 21008KT P6SM SCT250
     FM041500 21012G18KT P6SM SCT045 BKN200
     FM042100 23014G20KT P6SM VCSH BKN040 OVC100=

USA.gov is the U.S. government's official web portal to all federal, state and local government web resources and services.